Time;durP1;ratioP1;P1;durP2;ratioP2;P2;SDS_P1;SDS_P2;PMS_P1;PMS_P2;Temp;Humidity;BMP_temperature;BMP_pressure;BME280_temperature;BME280_humidity;BME280_pressure;Samples;Min_cycle;Max_cycle;Signal;HPM_P1;HPM_P2
2021/05/10 00:00:04;;;;;;;0.10;0.10;;;18.80;86.40;;;;;;4206821;28;20076;-50
2021/05/10 00:02:30;;;;;;;0.00;0.00;;;18.70;86.30;;;;;;4208460;28;20048;-47
2021/05/10 00:04:53;;;;;;;0.20;0.20;;;18.70;86.40;;;;;;4196809;28;20052;-47
2021/05/10 00:07:14;;;;;;;0.00;0.00;;;18.70;86.40;;;;;;4191468;28;20041;-47
2021/05/10 00:09:34;;;;;;;0.00;0.00;;;18.70;86.50;;;;;;4189835;28;20052;-50
2021/05/10 00:11:56;;;;;;;0.20;0.20;;;18.70;86.60;;;;;;4191463;28;20469;-45
2021/05/10 00:14:26;;;;;;;;;;;18.70;86.50;;;;;;4193712;28;20052;-50
2021/05/10 00:16:47;;;;;;;0.40;0.40;;;18.70;86.70;;;;;;4199079;28;19973;-46
2021/05/10 00:19:08;;;;;;;1.05;1.05;;;18.70;86.60;;;;;;4174629;28;20059;-50
2021/05/10 00:21:29;;;;;;;0.10;0.10;;;18.70;86.60;;;;;;4174852;28;20049;-49
2021/05/10 00:23:50;;;;;;;0.43;0.43;;;18.70;86.50;;;;;;4175529;28;20068;-48
2021/05/10 00:26:11;;;;;;;0.20;0.20;;;18.70;86.80;;;;;;4190053;28;20135;-49
2021/05/10 00:28:33;;;;;;;0.13;0.13;;;18.70;86.90;;;;;;4190092;28;20087;-52
2021/05/10 00:30:54;;;;;;;0.93;0.88;;;18.70;86.80;;;;;;4191261;28;20045;-53
2021/05/10 00:33:15;;;;;;;1.27;0.65;;;18.70;86.50;;;;;;4191411;28;20040;-50
2021/05/10 00:35:37;;;;;;;0.55;0.55;;;18.70;86.50;;;;;;4178380;28;20072;-47
2021/05/10 00:37:58;;;;;;;;;;;18.70;86.60;;;;;;4208569;28;20055;-53
2021/05/10 00:40:20;;;;;;;0.10;0.10;;;18.70;86.70;;;;;;4206986;28;19927;-48
2021/05/10 00:42:41;;;;;;;0.00;0.00;;;18.70;86.70;;;;;;4207759;28;20048;-48
2021/05/10 00:45:02;;;;;;;2.35;0.73;;;18.70;86.70;;;;;;4207901;28;20486;-46
2021/05/10 00:47:25;;;;;;;0.20;0.20;;;18.70;86.60;;;;;;4174913;28;20053;-49
2021/05/10 00:49:46;;;;;;;1.10;1.10;;;18.70;86.60;;;;;;4178058;28;20541;-47
2021/05/10 00:52:07;;;;;;;0.22;0.22;;;18.70;86.70;;;;;;4178034;28;20053;-47
2021/05/10 00:54:27;;;;;;;0.57;0.20;;;18.70;86.70;;;;;;4190576;28;20055;-47
2021/05/10 00:56:48;;;;;;;0.10;0.10;;;18.70;86.60;;;;;;4194545;28;20075;-46
2021/05/10 00:59:10;;;;;;;0.20;0.20;;;18.70;86.60;;;;;;4194437;28;20044;-45
2021/05/10 01:01:31;;;;;;;;;;;18.70;86.70;;;;;;4195146;28;20068;-47
2021/05/10 01:03:54;;;;;;;0.65;0.65;;;18.70;86.70;;;;;;4211084;28;20362;-46
2021/05/10 01:06:16;;;;;;;0.10;0.10;;;18.60;86.50;;;;;;4209628;28;20134;-48
2021/05/10 01:08:37;;;;;;;2.15;0.70;;;18.60;86.60;;;;;;4189247;28;20052;-48
2021/05/10 01:10:58;;;;;;;0.00;0.00;;;18.60;86.70;;;;;;4192931;28;20129;-48
2021/05/10 01:13:20;;;;;;;1.17;0.45;;;18.60;86.60;;;;;;4194149;28;20700;-46
2021/05/10 01:15:41;;;;;;;4.68;0.82;;;18.60;86.70;;;;;;4197066;28;20040;-46
2021/05/10 01:18:02;;;;;;;0.00;0.00;;;18.60;86.60;;;;;;4209925;28;20040;-45
2021/05/10 01:20:25;;;;;;;0.35;0.35;;;18.60;86.60;;;;;;4209998;28;20467;-47
2021/05/10 01:22:49;;;;;;;3.00;0.60;;;18.60;86.60;;;;;;4210118;28;20131;-46
2021/05/10 01:25:12;;;;;;;0.85;0.80;;;18.60;86.60;;;;;;4174919;28;20053;-46
2021/05/10 01:27:34;;;;;;;0.10;0.10;;;18.60;86.60;;;;;;4187714;28;20052;-46
2021/05/10 01:29:54;;;;;;;0.00;0.00;;;18.60;86.70;;;;;;4193544;28;20041;-46
2021/05/10 01:32:15;;;;;;;1.02;1.02;;;18.60;86.60;;;;;;4193996;28;20491;-46
2021/05/10 01:34:36;;;;;;;;;;;18.60;86.70;;;;;;4207389;28;20035;-46
2021/05/10 01:36:57;;;;;;;0.20;0.20;;;18.60;86.60;;;;;;4210559;28;19923;-48
2021/05/10 01:39:19;;;;;;;0.10;0.10;;;18.60;86.60;;;;;;4208434;28;20044;-48
2021/05/10 01:41:40;;;;;;;0.68;0.68;;;18.60;86.60;;;;;;4210027;28;20561;-46
2021/05/10 01:44:01;;;;;;;;;;;18.60;86.70;;;;;;4210928;28;20718;-46
2021/05/10 01:46:22;;;;;;;0.75;0.75;;;18.50;86.60;;;;;;4201626;28;19920;-49
2021/05/10 01:48:43;;;;;;;;;;;18.50;86.50;;;;;;4193985;28;20056;-49
2021/05/10 01:51:04;;;;;;;4.90;2.00;;;18.50;86.70;;;;;;4177105;28;19931;-47
2021/05/10 01:53:26;;;;;;;0.20;0.20;;;18.50;86.60;;;;;;4178268;28;20053;-46
2021/05/10 01:55:47;;;;;;;;;;;18.50;86.60;;;;;;4187797;28;20392;-48
2021/05/10 01:58:09;;;;;;;1.05;0.80;;;18.50;86.70;;;;;;4193460;28;19924;-46
2021/05/10 02:00:32;;;;;;;0.20;0.20;;;18.50;86.60;;;;;;4192815;28;20048;-48
2021/05/10 02:02:58;;;;;;;0.08;0.08;;;18.50;86.60;;;;;;4209783;28;20079;-47
2021/05/10 02:05:20;;;;;;;0.30;0.30;;;18.50;86.50;;;;;;4177022;28;20051;-48
2021/05/10 02:07:42;;;;;;;0.45;0.45;;;18.50;86.50;;;;;;4176713;28;20127;-50
2021/05/10 02:10:05;;;;;;;0.10;0.10;;;18.50;86.50;;;;;;4176666;28;20414;-46
2021/05/10 02:12:26;;;;;;;0.57;0.57;;;18.50;86.60;;;;;;4176789;28;20041;-51
2021/05/10 02:14:48;;;;;;;0.30;0.30;;;18.50;86.60;;;;;;4176519;28;20435;-45
2021/05/10 02:17:11;;;;;;;2.38;0.30;;;18.50;86.60;;;;;;4170189;28;20052;-47
2021/05/10 02:19:34;;;;;;;0.03;0.03;;;18.50;86.60;;;;;;4176878;28;20415;-45
2021/05/10 02:21:55;;;;;;;0.10;0.10;;;18.50;86.60;;;;;;4176443;28;20487;-45
2021/05/10 02:24:16;;;;;;;0.20;0.20;;;18.50;86.60;;;;;;4188608;28;20373;-50
2021/05/10 02:26:37;;;;;;;0.28;0.28;;;18.50;86.50;;;;;;4192993;28;20040;-47
2021/05/10 02:29:01;;;;;;;0.30;0.30;;;18.50;86.60;;;;;;4182052;28;19925;-46
2021/05/10 02:31:22;;;;;;;0.08;0.08;;;18.50;86.60;;;;;;4176217;28;20107;-46
2021/05/10 02:33:43;;;;;;;0.00;0.00;;;18.50;86.50;;;;;;4176601;28;20067;-45
2021/05/10 02:36:05;;;;;;;0.13;0.13;;;18.50;86.60;;;;;;4174852;28;20072;-46
2021/05/10 02:38:27;;;;;;;0.32;0.32;;;18.50;86.50;;;;;;4176194;28;20467;-45
2021/05/10 02:40:49;;;;;;;0.52;0.52;;;18.50;86.60;;;;;;4176313;28;20060;-46
2021/05/10 02:43:10;;;;;;;2.08;0.88;;;18.50;86.60;;;;;;4192994;28;20052;-48
2021/05/10 02:45:32;;;;;;;0.30;0.30;;;18.40;86.50;;;;;;4193183;28;20106;-45
2021/05/10 02:47:53;;;;;;;0.28;0.28;;;18.40;86.50;;;;;;4191825;28;20487;-50
2021/05/10 02:50:17;;;;;;;0.47;0.47;;;18.50;86.50;;;;;;4209354;28;20134;-45
2021/05/10 02:52:38;;;;;;;0.00;0.00;;;18.40;86.40;;;;;;4209161;28;20053;-45
2021/05/10 02:54:59;;;;;;;;;;;18.40;86.40;;;;;;4176560;28;20495;-45
2021/05/10 02:57:20;;;;;;;0.47;0.47;;;18.40;86.40;;;;;;4175931;28;19978;-46
2021/05/10 02:59:41;;;;;;;;;;;18.40;86.50;;;;;;4176646;28;20045;-46
2021/05/10 03:02:03;;;;;;;0.03;0.03;;;18.40;86.50;;;;;;4176129;28;19924;-45
2021/05/10 03:04:23;;;;;;;0.60;0.60;;;18.40;86.40;;;;;;4205597;28;20509;-45
2021/05/10 03:06:44;;;;;;;1.25;1.20;;;18.40;86.50;;;;;;4209058;28;20150;-47
2021/05/10 03:09:05;;;;;;;0.13;0.13;;;18.40;86.50;;;;;;4208741;28;20128;-52
2021/05/10 03:11:26;;;;;;;0.00;0.00;;;18.40;86.80;;;;;;4208980;28;20109;-50
2021/05/10 03:13:47;;;;;;;;;;;18.40;86.50;;;;;;4209442;28;20494;-49
2021/05/10 03:16:08;;;;;;;0.80;0.80;;;18.40;86.60;;;;;;4198216;28;19924;-45
2021/05/10 03:18:30;;;;;;;2.08;0.70;;;18.40;86.50;;;;;;4191807;28;20052;-48
2021/05/10 03:20:51;;;;;;;0.22;0.22;;;18.40;86.60;;;;;;4191934;28;20157;-47
2021/05/10 03:23:12;;;;;;;0.55;0.40;;;18.40;86.80;;;;;;4192782;28;20055;-50
2021/05/10 03:25:33;;;;;;;0.08;0.08;;;18.40;86.80;;;;;;4192238;28;20829;-47
2021/05/10 03:27:54;;;;;;;3.35;0.65;;;18.40;86.70;;;;;;4192297;28;20044;-49
2021/05/10 03:30:17;;;;;;;2.35;0.90;;;18.40;86.60;;;;;;4191692;28;20071;-52
2021/05/10 03:32:39;;;;;;;0.20;0.20;;;18.40;86.60;;;;;;4202705;28;20040;-50
2021/05/10 03:35:01;;;;;;;1.08;0.85;;;18.40;86.60;;;;;;4175202;28;20156;-49
2021/05/10 03:37:22;;;;;;;0.00;0.00;;;18.40;86.60;;;;;;4175482;28;20520;-45
2021/05/10 03:39:43;;;;;;;0.00;0.00;;;18.30;86.50;;;;;;4175345;28;20045;-46
2021/05/10 03:42:04;;;;;;;0.20;0.20;;;18.40;86.60;;;;;;4193782;28;20060;-47
2021/05/10 03:44:26;;;;;;;0.77;0.77;;;18.40;86.70;;;;;;4191983;28;20063;-46
2021/05/10 03:46:47;;;;;;;0.03;0.03;;;18.40;86.70;;;;;;4191719;28;20045;-46
2021/05/10 03:49:08;;;;;;;0.10;0.10;;;18.40;86.70;;;;;;4191613;28;20052;-47
2021/05/10 03:51:29;;;;;;;0.10;0.10;;;18.40;86.70;;;;;;4191410;28;20044;-49
2021/05/10 03:53:50;;;;;;;1.00;0.95;;;18.40;86.70;;;;;;4191907;28;20060;-47
2021/05/10 03:56:11;;;;;;;0.63;0.63;;;18.30;86.80;;;;;;4191429;28;20041;-49
2021/05/10 03:58:31;;;;;;;0.50;0.43;;;18.30;86.80;;;;;;4191613;28;20071;-46
2021/05/10 04:00:53;;;;;;;0.00;0.00;;;18.30;86.80;;;;;;4201978;28;20063;-46
2021/05/10 04:03:15;;;;;;;;;;;18.30;86.80;;;;;;4192016;28;20044;-46
2021/05/10 04:05:54;;;;;;;0.30;0.30;;;18.30;86.90;;;;;;4191495;28;19950;-49
2021/05/10 04:08:37;;;;;;;0.55;0.55;;;18.30;86.90;;;;;;4183265;28;20048;-49
2021/05/10 04:11:01;;;;;;;0.80;0.80;;;18.30;86.90;;;;;;4188507;28;20068;-49
2021/05/10 04:13:39;;;;;;;0.00;0.00;;;18.30;87.00;;;;;;4202141;28;20543;-47
2021/05/10 04:16:00;;;;;;;0.10;0.10;;;18.30;87.00;;;;;;4177165;28;20045;-48
2021/05/10 04:18:21;;;;;;;0.30;0.30;;;18.30;87.00;;;;;;4191804;28;20062;-49
2021/05/10 04:20:42;;;;;;;0.00;0.00;;;18.30;87.00;;;;;;4191407;28;20047;-47
2021/05/10 04:23:03;;;;;;;0.80;0.63;;;18.30;87.10;;;;;;4196303;28;20048;-46
2021/05/10 04:25:26;;;;;;;0.08;0.08;;;18.30;87.10;;;;;;4206573;28;20055;-46
2021/05/10 04:27:48;;;;;;;0.13;0.13;;;18.30;87.10;;;;;;4207669;28;20058;-49
2021/05/10 04:30:10;;;;;;;0.00;0.00;;;18.30;87.10;;;;;;4207790;28;20090;-45
2021/05/10 04:32:31;;;;;;;0.25;0.25;;;18.30;87.30;;;;;;4202067;28;20048;-48
2021/05/10 04:34:53;;;;;;;0.45;0.45;;;18.30;87.50;;;;;;4207825;28;20122;-49
2021/05/10 04:37:15;;;;;;;0.60;0.60;;;18.30;87.60;;;;;;4207494;28;20072;-46
2021/05/10 04:39:36;;;;;;;0.00;0.00;;;18.30;87.60;;;;;;4191225;28;20491;-48
2021/05/10 04:41:57;;;;;;;0.30;0.30;;;18.30;87.70;;;;;;4191204;28;20044;-47
2021/05/10 04:44:18;;;;;;;0.25;0.25;;;18.30;87.80;;;;;;4190943;28;20048;-45
2021/05/10 04:46:39;;;;;;;0.98;0.98;;;18.30;87.80;;;;;;4158022;28;20072;-49
2021/05/10 04:49:00;;;;;;;0.38;0.38;;;18.30;87.90;;;;;;4157941;28;20045;-47
2021/05/10 04:51:21;;;;;;;0.10;0.10;;;18.30;87.90;;;;;;4158296;28;20053;-46
2021/05/10 04:53:42;;;;;;;0.25;0.25;;;18.30;87.80;;;;;;4171847;28;20443;-45
2021/05/10 04:56:03;;;;;;;0.15;0.15;;;18.30;87.80;;;;;;4174594;28;20137;-46
2021/05/10 04:58:25;;;;;;;0.13;0.13;;;18.30;87.90;;;;;;4174255;28;20075;-48
2021/05/10 05:00:46;;;;;;;0.38;0.38;;;18.30;88.00;;;;;;4174584;28;20053;-48
2021/05/10 05:03:07;;;;;;;0.80;0.80;;;18.20;88.10;;;;;;4179755;28;20106;-46
2021/05/10 05:05:28;;;;;;;0.32;0.32;;;18.30;88.50;;;;;;4191059;28;20422;-46
2021/05/10 05:07:49;;;;;;;0.20;0.20;;;18.30;88.80;;;;;;4207454;28;20032;-45
2021/05/10 05:10:11;;;;;;;0.00;0.00;;;18.30;88.40;;;;;;4202835;28;20048;-45
2021/05/10 05:12:32;;;;;;;0.85;0.85;;;18.40;88.30;;;;;;4190495;28;20119;-48
2021/05/10 05:14:54;;;;;;;0.47;0.40;;;18.40;89.10;;;;;;4193106;28;20543;-45
2021/05/10 05:17:15;;;;;;;0.17;0.17;;;18.40;88.20;;;;;;4206410;28;20126;-45
2021/05/10 05:19:37;;;;;;;1.42;1.08;;;18.40;88.20;;;;;;4204857;28;20080;-46
2021/05/10 05:21:58;;;;;;;;;;;18.40;88.30;;;;;;4181674;28;20052;-47
2021/05/10 05:24:19;;;;;;;0.10;0.10;;;18.40;88.40;;;;;;4206571;28;19930;-46
2021/05/10 05:26:40;;;;;;;0.52;0.52;;;18.40;88.30;;;;;;4207497;28;20052;-48
2021/05/10 05:29:02;;;;;;;0.13;0.13;;;18.40;88.40;;;;;;4206659;28;20071;-48
2021/05/10 05:31:24;;;;;;;0.30;0.30;;;18.40;88.40;;;;;;4190399;28;20499;-50
2021/05/10 05:33:45;;;;;;;0.20;0.20;;;18.40;88.20;;;;;;4191684;28;20099;-47
2021/05/10 05:36:21;;;;;;;0.65;0.65;;;18.40;88.20;;;;;;4193702;28;20510;-46
2021/05/10 05:38:43;;;;;;;0.00;0.00;;;18.40;88.10;;;;;;4177280;28;20414;-45
2021/05/10 05:41:04;;;;;;;0.22;0.22;;;18.40;88.00;;;;;;4177125;28;20420;-48
2021/05/10 05:43:25;;;;;;;0.20;0.20;;;18.50;87.90;;;;;;4192058;28;20498;-45
2021/05/10 05:45:46;;;;;;;0.77;0.77;;;18.50;87.60;;;;;;4191774;28;20044;-47
2021/05/10 05:48:09;;;;;;;;;;;18.50;87.80;;;;;;4194075;28;20048;-47
2021/05/10 05:50:30;;;;;;;0.38;0.38;;;18.60;88.70;;;;;;4193714;28;19924;-45
2021/05/10 05:52:52;;;;;;;0.43;0.43;;;18.60;91.60;;;;;;4193762;28;20052;-47
2021/05/10 05:55:14;;;;;;;0.55;0.55;;;18.70;93.80;;;;;;4193604;28;20670;-46
2021/05/10 05:57:35;;;;;;;0.30;0.30;;;18.70;93.10;;;;;;4193384;28;20491;-46
2021/05/10 05:59:57;;;;;;;0.03;0.03;;;18.90;91.90;;;;;;4193307;28;20052;-45
2021/05/10 06:02:18;;;;;;;0.40;0.40;;;19.00;91.30;;;;;;4193399;28;20502;-46
2021/05/10 06:04:40;;;;;;;0.10;0.10;;;19.10;90.50;;;;;;4193096;28;20045;-45
2021/05/10 06:07:01;;;;;;;14.00;1.30;;;19.20;89.30;;;;;;4199529;28;20108;-45
2021/05/10 06:09:23;;;;;;;;;;;19.20;87.40;;;;;;4201836;28;20147;-44
2021/05/10 06:11:43;;;;;;;;;;;19.30;86.10;;;;;;4181737;28;19931;-43
2021/05/10 06:14:05;;;;;;;0.00;0.00;;;19.30;84.90;;;;;;4182601;28;19931;-44
2021/05/10 06:16:27;;;;;;;0.05;0.05;;;19.30;84.60;;;;;;4176404;28;21085;-46
2021/05/10 06:18:49;;;;;;;1.35;1.15;;;19.40;84.10;;;;;;4176348;28;20135;-43
2021/05/10 06:21:11;;;;;;;0.10;0.10;;;19.40;83.90;;;;;;4176977;28;20743;-42
2021/05/10 06:23:32;;;;;;;1.08;0.80;;;19.40;83.90;;;;;;4175744;28;20458;-46
2021/05/10 06:25:54;;;;;;;0.32;0.32;;;19.50;85.00;;;;;;4175549;28;20139;-50
2021/05/10 06:28:15;;;;;;;0.03;0.03;;;19.50;84.60;;;;;;4159575;28;20512;-46
2021/05/10 06:30:36;;;;;;;0.00;0.00;;;19.50;84.10;;;;;;4206389;28;20071;-51
2021/05/10 06:32:57;;;;;;;0.00;0.00;;;19.50;84.00;;;;;;4208150;28;20048;-48
2021/05/10 06:35:18;;;;;;;;;;;19.50;83.70;;;;;;4210295;28;20482;-52
2021/05/10 06:37:40;;;;;;;0.00;0.00;;;19.50;83.50;;;;;;4209651;28;19927;-49
2021/05/10 06:40:01;;;;;;;4.20;1.00;;;19.50;83.00;;;;;;4209678;28;20047;-48
2021/05/10 06:42:21;;;;;;;0.00;0.00;;;19.50;82.70;;;;;;4209517;28;20052;-49
2021/05/10 06:44:42;;;;;;;;;;;19.40;81.90;;;;;;4190671;28;20135;-49
2021/05/10 06:47:03;;;;;;;0.00;0.00;;;19.40;81.50;;;;;;4209341;28;20003;-51
2021/05/10 06:49:24;;;;;;;0.05;0.05;;;19.40;81.40;;;;;;4209080;28;20058;-48
2021/05/10 06:51:45;;;;;;;0.20;0.20;;;19.40;81.30;;;;;;4209476;28;20562;-49
2021/05/10 06:54:07;;;;;;;0.10;0.10;;;19.40;81.20;;;;;;4209296;28;20134;-46
2021/05/10 06:56:29;;;;;;;17.15;1.55;;;19.30;80.80;;;;;;4196536;28;20048;-48
2021/05/10 06:58:50;;;;;;;0.05;0.05;;;19.30;80.90;;;;;;4190939;28;20060;-48
2021/05/10 07:01:11;;;;;;;0.00;0.00;;;19.30;79.90;;;;;;4175739;28;20483;-46
2021/05/10 07:03:32;;;;;;;0.38;0.38;;;19.30;79.60;;;;;;4175939;28;20040;-45
2021/05/10 07:05:53;;;;;;;0.00;0.00;;;19.30;79.00;;;;;;4174334;28;20118;-49
2021/05/10 07:08:15;;;;;;;0.20;0.13;;;19.30;78.30;;;;;;4194648;28;20051;-49
2021/05/10 07:10:37;;;;;;;0.45;0.45;;;19.30;77.70;;;;;;4194168;28;20048;-48
2021/05/10 07:12:58;;;;;;;0.00;0.00;;;19.30;77.40;;;;;;4191539;28;20044;-49
2021/05/10 07:15:19;;;;;;;0.10;0.10;;;19.30;76.80;;;;;;4175516;28;20084;-50
2021/05/10 07:17:40;;;;;;;0.45;0.45;;;19.30;76.40;;;;;;4175544;28;20049;-51
2021/05/10 07:20:01;;;;;;;0.00;0.00;;;19.30;75.90;;;;;;4175658;28;20055;-49
2021/05/10 07:22:22;;;;;;;0.00;0.00;;;19.40;76.00;;;;;;4175874;28;20571;-51
2021/05/10 07:24:44;;;;;;;12.52;1.88;;;19.40;76.00;;;;;;4175738;28;20454;-51
2021/05/10 07:27:06;;;;;;;;;;;19.40;75.60;;;;;;4176164;28;20056;-53
2021/05/10 07:29:26;;;;;;;;;;;19.50;74.80;;;;;;4185379;28;19935;-50
2021/05/10 07:31:47;;;;;;;0.00;0.00;;;19.50;74.90;;;;;;4192298;28;20026;-49
2021/05/10 07:34:09;;;;;;;0.00;0.00;;;19.60;75.10;;;;;;4191777;28;20072;-49
2021/05/10 07:36:30;;;;;;;0.30;0.30;;;19.70;74.60;;;;;;4192251;28;20052;-51
2021/05/10 07:38:52;;;;;;;0.00;0.00;;;19.70;74.60;;;;;;4191938;28;20518;-48
2021/05/10 07:41:12;;;;;;;0.65;0.65;;;19.70;75.10;;;;;;4191833;28;20406;-46
2021/05/10 07:43:34;;;;;;;0.28;0.28;;;19.70;75.10;;;;;;4191624;28;20040;-46
2021/05/10 07:45:55;;;;;;;0.00;0.00;;;19.70;75.30;;;;;;4191711;28;20129;-48
2021/05/10 07:48:16;;;;;;;;;;;19.70;75.40;;;;;;4192184;28;20049;-46
2021/05/10 07:50:37;;;;;;;0.00;0.00;;;19.70;75.40;;;;;;4191590;28;20412;-51
2021/05/10 07:52:58;;;;;;;0.00;0.00;;;19.70;75.60;;;;;;4191611;28;20761;-47
2021/05/10 07:55:19;;;;;;;0.00;0.00;;;19.60;75.60;;;;;;4191863;28;20096;-49
2021/05/10 07:57:40;;;;;;;;;;;19.70;75.80;;;;;;4191441;28;20048;-52
2021/05/10 08:00:04;;;;;;;0.55;0.55;;;19.60;75.70;;;;;;4191393;28;19924;-48
2021/05/10 08:02:25;;;;;;;0.20;0.20;;;19.70;75.90;;;;;;4191015;28;20131;-48
2021/05/10 08:04:46;;;;;;;0.00;0.00;;;19.70;75.70;;;;;;4175592;28;20048;-49
2021/05/10 08:07:08;;;;;;;0.00;0.00;;;19.70;75.80;;;;;;4191661;28;20053;-47
2021/05/10 08:09:28;;;;;;;0.00;0.00;;;19.80;75.80;;;;;;4191353;28;20815;-51
2021/05/10 08:11:49;;;;;;;0.35;0.35;;;19.80;75.80;;;;;;4191024;28;20053;-50
2021/05/10 08:14:10;;;;;;;0.10;0.10;;;19.80;75.80;;;;;;4191244;28;20056;-48
2021/05/10 08:16:32;;;;;;;;;;;19.80;75.80;;;;;;4191750;28;20055;-46
2021/05/10 08:18:53;;;;;;;0.00;0.00;;;19.80;75.80;;;;;;4191343;28;19932;-50
2021/05/10 08:21:14;;;;;;;10.05;0.57;;;19.70;75.60;;;;;;4191404;28;20036;-49
2021/05/10 08:23:35;;;;;;;;;;;19.70;75.70;;;;;;4201117;28;20052;-49
2021/05/10 08:25:57;;;;;;;1.25;0.65;;;19.70;75.70;;;;;;4207812;28;19926;-46
2021/05/10 08:28:18;;;;;;;0.05;0.05;;;19.70;75.90;;;;;;4207989;28;20066;-49
2021/05/10 08:30:38;;;;;;;;;;;19.60;75.90;;;;;;4208539;28;20052;-49
2021/05/10 08:33:01;;;;;;;0.38;0.38;;;19.60;76.10;;;;;;4207661;28;20010;-49
2021/05/10 08:35:22;;;;;;;0.00;0.00;;;19.60;76.20;;;;;;4206421;28;20056;-52
2021/05/10 08:37:46;;;;;;;0.10;0.10;;;19.60;76.30;;;;;;4207941;28;20149;-50
2021/05/10 08:40:09;;;;;;;0.10;0.10;;;19.60;76.40;;;;;;4207790;28;20054;-47
2021/05/10 08:42:30;;;;;;;0.05;0.05;;;19.50;76.70;;;;;;4207635;28;20054;-49
2021/05/10 08:44:52;;;;;;;2.72;1.58;;;19.50;76.50;;;;;;4208010;28;20047;-49
2021/05/10 08:47:13;;;;;;;0.00;0.00;;;19.50;76.60;;;;;;4207949;28;20044;-48
2021/05/10 08:49:35;;;;;;;0.00;0.00;;;19.50;76.50;;;;;;4207644;28;20402;-49
2021/05/10 08:51:57;;;;;;;0.98;0.98;;;19.50;76.50;;;;;;4207539;28;20055;-49
2021/05/10 08:54:19;;;;;;;0.15;0.15;;;19.50;76.70;;;;;;4207669;28;20050;-46
2021/05/10 08:56:40;;;;;;;0.00;0.00;;;19.50;76.50;;;;;;4207899;28;20071;-47
2021/05/10 08:59:01;;;;;;;0.28;0.28;;;19.50;76.40;;;;;;4207991;28;20063;-52
2021/05/10 09:01:23;;;;;;;0.00;0.00;;;19.50;76.30;;;;;;4207436;28;20051;-50
2021/05/10 09:03:45;;;;;;;0.00;0.00;;;19.60;76.30;;;;;;4192866;28;20052;-48
2021/05/10 09:06:11;;;;;;;0.00;0.00;;;19.60;76.20;;;;;;4191181;28;20487;-48
2021/05/10 09:08:39;;;;;;;0.00;0.00;;;19.60;76.00;;;;;;4191717;28;20040;-48
2021/05/10 09:11:08;;;;;;;0.00;0.00;;;19.70;75.90;;;;;;4193034;28;20048;-48
2021/05/10 09:13:38;;;;;;;0.00;0.00;;;19.70;76.00;;;;;;4193897;28;20410;-47
2021/05/10 09:16:02;;;;;;;0.00;0.00;;;19.70;75.90;;;;;;4194302;28;20120;-47
2021/05/10 09:18:22;;;;;;;0.00;0.00;;;19.70;75.80;;;;;;4193852;28;20538;-49
2021/05/10 09:20:44;;;;;;;;;;;19.70;75.80;;;;;;4194296;28;20048;-51
2021/05/10 09:23:08;;;;;;;0.00;0.00;;;19.70;75.70;;;;;;4204746;28;19927;-48
2021/05/10 09:25:32;;;;;;;0.32;0.32;;;19.80;75.80;;;;;;4210786;28;20105;-48
2021/05/10 09:28:10;;;;;;;0.00;0.00;;;19.80;75.80;;;;;;4210833;28;20048;-45
2021/05/10 09:30:31;;;;;;;0.03;0.03;;;19.70;75.70;;;;;;4210791;28;20747;-48
2021/05/10 09:32:54;;;;;;;7.55;1.38;;;19.70;75.90;;;;;;4210884;28;20050;-48
2021/05/10 09:35:18;;;;;;;0.57;0.57;;;19.70;76.50;;;;;;4210486;28;20063;-48
2021/05/10 09:37:40;;;;;;;0.00;0.00;;;19.70;76.20;;;;;;4210596;28;20488;-46
2021/05/10 09:40:06;;;;;;;0.00;0.00;;;19.70;76.20;;;;;;4209273;28;20055;-50
2021/05/10 09:42:28;;;;;;;0.35;0.35;;;19.70;76.30;;;;;;4210365;28;20698;-48
2021/05/10 09:44:50;;;;;;;0.00;0.00;;;19.70;76.40;;;;;;4210318;28;20425;-46
2021/05/10 09:47:13;;;;;;;4.45;1.77;;;19.70;76.50;;;;;;4210318;28;20048;-46
2021/05/10 09:49:44;;;;;;;0.00;0.00;;;19.70;76.50;;;;;;4210033;28;20093;-49
2021/05/10 09:52:19;;;;;;;0.75;0.75;;;19.70;77.40;;;;;;4205292;28;20048;-48
2021/05/10 09:54:40;;;;;;;0.15;0.15;;;19.70;76.40;;;;;;4203778;28;20151;-52
2021/05/10 09:57:07;;;;;;;;;;;19.70;76.40;;;;;;4210911;28;20044;-48
2021/05/10 09:59:27;;;;;;;0.10;0.10;;;19.70;76.40;;;;;;4210219;28;19924;-50
2021/05/10 10:01:49;;;;;;;0.00;0.00;;;19.70;76.50;;;;;;4210241;28;20652;-48
2021/05/10 10:04:11;;;;;;;0.00;0.00;;;19.70;76.60;;;;;;4206881;28;20465;-51
2021/05/10 10:06:32;;;;;;;0.20;0.20;;;19.70;76.60;;;;;;4199440;28;20045;-52
2021/05/10 10:08:53;;;;;;;0.22;0.22;;;19.60;76.70;;;;;;4195177;28;20057;-47
2021/05/10 10:11:17;;;;;;;0.00;0.00;;;19.60;76.80;;;;;;4193387;28;20449;-47
2021/05/10 10:13:39;;;;;;;0.00;0.00;;;19.60;76.90;;;;;;4191730;28;20057;-48
2021/05/10 10:16:02;;;;;;;0.00;0.00;;;19.60;76.90;;;;;;4192844;28;20131;-50
2021/05/10 10:18:24;;;;;;;0.00;0.00;;;19.70;77.00;;;;;;4180581;28;20477;-51
2021/05/10 10:20:49;;;;;;;0.00;0.00;;;19.70;77.00;;;;;;4187458;28;20045;-54
2021/05/10 10:23:12;;;;;;;2.35;0.85;;;19.70;77.10;;;;;;4193234;28;20139;-50
2021/05/10 10:25:36;;;;;;;0.00;0.00;;;19.60;77.20;;;;;;4176745;28;20128;-50
2021/05/10 10:28:16;;;;;;;0.00;0.00;;;19.60;77.40;;;;;;4176309;28;20087;-52
2021/05/10 10:30:42;;;;;;;0.10;0.10;;;19.60;77.50;;;;;;4176395;28;20044;-48
2021/05/10 10:33:08;;;;;;;0.00;0.00;;;19.50;77.60;;;;;;4175181;28;20087;-50
2021/05/10 10:35:31;;;;;;;0.10;0.10;;;19.50;77.80;;;;;;4179798;28;20062;-50
2021/05/10 10:37:52;;;;;;;0.08;0.08;;;19.50;77.90;;;;;;4196108;28;20048;-47
2021/05/10 10:40:17;;;;;;;;;;;19.40;78.10;;;;;;4193108;28;20040;-49
2021/05/10 10:42:42;;;;;;;0.00;0.00;;;19.40;78.20;;;;;;4200832;28;19961;-45
2021/05/10 10:45:04;;;;;;;0.00;0.00;;;19.40;78.40;;;;;;4209069;28;20048;-48
2021/05/10 10:47:44;;;;;;;0.00;0.00;;;19.30;78.50;;;;;;4207942;28;20055;-51
2021/05/10 10:50:05;;;;;;;0.13;0.13;;;19.30;78.70;;;;;;4192478;28;20453;-48
2021/05/10 10:52:28;;;;;;;0.10;0.10;;;19.30;78.90;;;;;;4192756;28;20053;-47
2021/05/10 10:55:13;;;;;;;14.05;1.90;;;19.20;79.10;;;;;;4194571;28;20131;-52
2021/05/10 10:57:35;;;;;;;3.92;1.88;;;19.20;79.30;;;;;;4193303;28;20121;-46
2021/05/10 10:59:56;;;;;;;0.00;0.00;;;19.20;79.40;;;;;;4202027;28;20418;-49
2021/05/10 11:02:21;;;;;;;0.00;0.00;;;19.20;79.50;;;;;;4175883;28;20066;-47
2021/05/10 11:04:43;;;;;;;0.00;0.00;;;19.20;79.60;;;;;;4180222;28;20147;-47
2021/05/10 11:07:04;;;;;;;0.00;0.00;;;19.20;79.60;;;;;;4192482;28;20071;-49
2021/05/10 11:09:51;;;;;;;0.00;0.00;;;19.20;79.60;;;;;;4192307;28;20053;-46
2021/05/10 11:12:51;;;;;;;0.00;0.00;;;19.20;79.70;;;;;;4192059;28;20063;-46
2021/05/10 11:15:13;;;;;;;0.00;0.00;;;19.20;79.80;;;;;;4191930;28;20056;-49
2021/05/10 11:17:52;;;;;;;0.00;0.00;;;19.20;79.70;;;;;;4192205;28;20055;-46
2021/05/10 11:20:37;;;;;;;1.08;0.57;;;19.30;79.70;;;;;;4191815;28;20044;-46
2021/05/10 11:23:30;;;;;;;0.00;0.00;;;19.30;79.60;;;;;;4191850;28;20041;-52
2021/05/10 11:25:52;;;;;;;0.00;0.00;;;19.30;79.50;;;;;;4192193;28;20048;-50
2021/05/10 11:28:55;;;;;;;0.00;0.00;;;19.30;79.40;;;;;;4192178;28;20044;-49
2021/05/10 11:31:34;;;;;;;0.00;0.00;;;19.30;79.30;;;;;;4163081;28;20132;-46
2021/05/10 11:34:08;;;;;;;0.00;0.00;;;19.30;79.30;;;;;;4191756;28;20495;-47
2021/05/10 11:36:31;;;;;;;0.88;0.30;;;19.30;79.30;;;;;;4191678;28;20490;-50
2021/05/10 11:38:54;;;;;;;0.00;0.00;;;19.30;79.40;;;;;;4175893;28;20049;-50
2021/05/10 11:41:15;;;;;;;0.00;0.00;;;19.30;79.40;;;;;;4191647;28;20070;-48
2021/05/10 11:43:38;;;;;;;0.00;0.00;;;19.30;79.40;;;;;;4175144;28;20056;-48
2021/05/10 11:45:59;;;;;;;0.00;0.00;;;19.30;79.40;;;;;;4175690;28;20061;-46
2021/05/10 11:48:39;;;;;;;0.00;0.00;;;19.30;79.40;;;;;;4175002;28;20049;-51
2021/05/10 11:51:00;;;;;;;0.10;0.10;;;19.30;79.40;;;;;;4175135;28;20126;-46
2021/05/10 11:53:29;;;;;;;0.00;0.00;;;19.30;79.30;;;;;;4171041;28;20060;-48
2021/05/10 11:56:02;;;;;;;0.10;0.10;;;19.40;79.30;;;;;;4174687;28;20099;-46
2021/05/10 11:58:53;;;;;;;0.00;0.00;;;19.40;79.30;;;;;;4175167;28;20556;-48
2021/05/10 12:01:15;;;;;;;0.10;0.10;;;19.40;79.30;;;;;;4174899;28;20049;-48
2021/05/10 12:03:35;;;;;;;1.08;0.93;;;19.40;79.30;;;;;;4175147;28;20055;-49
2021/05/10 12:05:57;;;;;;;3.80;1.20;;;19.40;79.20;;;;;;4175169;28;20152;-48
2021/05/10 12:08:21;;;;;;;0.00;0.00;;;19.40;79.10;;;;;;4175104;28;20059;-47
2021/05/10 12:10:43;;;;;;;0.80;0.65;;;19.40;79.00;;;;;;4174485;28;20053;-50
2021/05/10 12:13:03;;;;;;;0.00;0.00;;;19.40;78.90;;;;;;4174791;28;20049;-48
2021/05/10 12:15:26;;;;;;;0.00;0.00;;;19.40;79.70;;;;;;4174861;28;20048;-51
2021/05/10 12:17:51;;;;;;;0.00;0.00;;;19.40;78.80;;;;;;4175034;28;20064;-49
2021/05/10 12:20:14;;;;;;;0.00;0.00;;;19.40;78.70;;;;;;4174233;28;20059;-49
2021/05/10 12:22:38;;;;;;;0.00;0.00;;;19.50;78.80;;;;;;4174810;28;20060;-49
2021/05/10 12:25:17;;;;;;;0.00;0.00;;;19.50;78.70;;;;;;4174523;28;20049;-47
2021/05/10 12:27:42;;;;;;;0.00;0.00;;;19.50;78.60;;;;;;4174318;28;20041;-47
2021/05/10 12:30:10;;;;;;;0.00;0.00;;;19.50;78.50;;;;;;4173431;28;20458;-53